sensor_id;sensor_type;location;lat;lon;timestamp;P1;durP1;ratioP1;P2;durP2;ratioP2
16900;SDS011;8567;52.540;6.434;2022-07-26T00:00:47;17.42;;;16.52;;
16900;SDS011;8567;52.540;6.434;2022-07-26T00:03:14;18.67;;;17.67;;
16900;SDS011;8567;52.540;6.434;2022-07-26T00:05:41;18.30;;;17.35;;
16900;SDS011;8567;52.540;6.434;2022-07-26T00:08:08;18.73;;;17.73;;
16900;SDS011;8567;52.540;6.434;2022-07-26T00:10:39;18.08;;;16.98;;
16900;SDS011;8567;52.540;6.434;2022-07-26T00:13:10;18.05;;;17.05;;
16900;SDS011;8567;52.540;6.434;2022-07-26T00:15:37;18.75;;;17.67;;
16900;SDS011;8567;52.540;6.434;2022-07-26T00:18:04;18.95;;;17.88;;
16900;SDS011;8567;52.540;6.434;2022-07-26T00:20:31;18.95;;;17.95;;
16900;SDS011;8567;52.540;6.434;2022-07-26T00:22:58;18.20;;;17.20;;
16900;SDS011;8567;52.540;6.434;2022-07-26T00:25:25;18.70;;;17.60;;
16900;SDS011;8567;52.540;6.434;2022-07-26T00:27:51;18.30;;;17.33;;
16900;SDS011;8567;52.540;6.434;2022-07-26T00:30:19;18.02;;;17.02;;
16900;SDS011;8567;52.540;6.434;2022-07-26T00:32:46;19.58;;;18.35;;
16900;SDS011;8567;52.540;6.434;2022-07-26T00:35:13;18.58;;;17.58;;
16900;SDS011;8567;52.540;6.434;2022-07-26T00:37:40;17.83;;;16.88;;
16900;SDS011;8567;52.540;6.434;2022-07-26T00:40:07;19.40;;;18.20;;
16900;SDS011;8567;52.540;6.434;2022-07-26T00:42:35;17.63;;;16.73;;
16900;SDS011;8567;52.540;6.434;2022-07-26T00:45:02;18.90;;;17.90;;
16900;SDS011;8567;52.540;6.434;2022-07-26T00:47:31;19.42;;;18.42;;
16900;SDS011;8567;52.540;6.434;2022-07-26T00:49:58;18.85;;;17.85;;
16900;SDS011;8567;52.540;6.434;2022-07-26T00:52:25;19.00;;;17.98;;
16900;SDS011;8567;52.540;6.434;2022-07-26T00:54:52;18.27;;;17.27;;
16900;SDS011;8567;52.540;6.434;2022-07-26T00:57:20;20.00;;;18.90;;
16900;SDS011;8567;52.540;6.434;2022-07-26T00:59:48;18.40;;;17.40;;
16900;SDS011;8567;52.540;6.434;2022-07-26T01:02:15;18.98;;;17.92;;
16900;SDS011;8567;52.540;6.434;2022-07-26T01:04:43;19.73;;;18.63;;
16900;SDS011;8567;52.540;6.434;2022-07-26T01:07:11;18.35;;;17.40;;
16900;SDS011;8567;52.540;6.434;2022-07-26T01:09:39;16.85;;;16.00;;
16900;SDS011;8567;52.540;6.434;2022-07-26T01:12:07;19.10;;;18.05;;
16900;SDS011;8567;52.540;6.434;2022-07-26T01:14:34;19.02;;;18.02;;
16900;SDS011;8567;52.540;6.434;2022-07-26T01:17:01;18.20;;;17.10;;
16900;SDS011;8567;52.540;6.434;2022-07-26T01:19:28;18.23;;;17.30;;
16900;SDS011;8567;52.540;6.434;2022-07-26T01:21:56;17.95;;;17.02;;
16900;SDS011;8567;52.540;6.434;2022-07-26T01:24:23;17.05;;;16.15;;
16900;SDS011;8567;52.540;6.434;2022-07-26T01:26:50;19.65;;;18.65;;
16900;SDS011;8567;52.540;6.434;2022-07-26T01:29:16;20.38;;;19.33;;
16900;SDS011;8567;52.540;6.434;2022-07-26T01:31:43;20.65;;;19.45;;
16900;SDS011;8567;52.540;6.434;2022-07-26T01:34:10;18.67;;;17.73;;
16900;SDS011;8567;52.540;6.434;2022-07-26T01:36:37;18.17;;;17.17;;
16900;SDS011;8567;52.540;6.434;2022-07-26T01:39:06;18.40;;;17.42;;
16900;SDS011;8567;52.540;6.434;2022-07-26T01:41:33;18.90;;;17.85;;
16900;SDS011;8567;52.540;6.434;2022-07-26T01:44:00;19.70;;;18.63;;
16900;SDS011;8567;52.540;6.434;2022-07-26T01:46:27;18.77;;;17.70;;
16900;SDS011;8567;52.540;6.434;2022-07-26T01:48:54;19.45;;;18.35;;
16900;SDS011;8567;52.540;6.434;2022-07-26T01:51:21;20.25;;;19.17;;
16900;SDS011;8567;52.540;6.434;2022-07-26T01:53:47;18.77;;;17.77;;
16900;SDS011;8567;52.540;6.434;2022-07-26T01:56:16;20.60;;;19.50;;
16900;SDS011;8567;52.540;6.434;2022-07-26T01:58:42;21.08;;;19.98;;
16900;SDS011;8567;52.540;6.434;2022-07-26T02:01:09;20.13;;;18.92;;
16900;SDS011;8567;52.540;6.434;2022-07-26T02:03:36;19.75;;;18.58;;
16900;SDS011;8567;52.540;6.434;2022-07-26T02:06:03;20.02;;;18.92;;
16900;SDS011;8567;52.540;6.434;2022-07-26T02:08:31;20.08;;;18.92;;
16900;SDS011;8567;52.540;6.434;2022-07-26T02:10:57;19.77;;;18.60;;
16900;SDS011;8567;52.540;6.434;2022-07-26T02:13:29;19.20;;;18.20;;
16900;SDS011;8567;52.540;6.434;2022-07-26T02:15:57;18.38;;;17.40;;
16900;SDS011;8567;52.540;6.434;2022-07-26T02:18:24;18.60;;;17.60;;
16900;SDS011;8567;52.540;6.434;2022-07-26T02:20:52;19.55;;;18.50;;
16900;SDS011;8567;52.540;6.434;2022-07-26T02:23:19;19.33;;;18.33;;
16900;SDS011;8567;52.540;6.434;2022-07-26T02:25:46;18.92;;;17.88;;
16900;SDS011;8567;52.540;6.434;2022-07-26T02:28:13;19.35;;;18.25;;
16900;SDS011;8567;52.540;6.434;2022-07-26T02:30:42;19.20;;;18.20;;
16900;SDS011;8567;52.540;6.434;2022-07-26T02:33:09;19.17;;;18.17;;
16900;SDS011;8567;52.540;6.434;2022-07-26T02:35:36;19.70;;;18.60;;
16900;SDS011;8567;52.540;6.434;2022-07-26T02:38:03;18.55;;;17.55;;
16900;SDS011;8567;52.540;6.434;2022-07-26T02:40:32;18.02;;;17.02;;
16900;SDS011;8567;52.540;6.434;2022-07-26T02:42:59;17.77;;;16.77;;
16900;SDS011;8567;52.540;6.434;2022-07-26T02:45:26;18.85;;;17.80;;
16900;SDS011;8567;52.540;6.434;2022-07-26T02:47:54;17.50;;;16.58;;
16900;SDS011;8567;52.540;6.434;2022-07-26T02:50:22;19.30;;;18.20;;
16900;SDS011;8567;52.540;6.434;2022-07-26T02:52:50;18.63;;;17.60;;
16900;SDS011;8567;52.540;6.434;2022-07-26T02:55:18;18.45;;;17.35;;
16900;SDS011;8567;52.540;6.434;2022-07-26T02:57:47;18.25;;;17.25;;
16900;SDS011;8567;52.540;6.434;2022-07-26T03:00:15;18.25;;;17.25;;
16900;SDS011;8567;52.540;6.434;2022-07-26T03:02:44;18.73;;;17.55;;
16900;SDS011;8567;52.540;6.434;2022-07-26T03:05:14;18.00;;;17.00;;
16900;SDS011;8567;52.540;6.434;2022-07-26T03:07:42;16.85;;;15.95;;
16900;SDS011;8567;52.540;6.434;2022-07-26T03:10:09;18.58;;;17.58;;
16900;SDS011;8567;52.540;6.434;2022-07-26T03:12:36;18.27;;;17.27;;
16900;SDS011;8567;52.540;6.434;2022-07-26T03:15:03;18.15;;;17.15;;
16900;SDS011;8567;52.540;6.434;2022-07-26T03:17:30;17.17;;;16.27;;
16900;SDS011;8567;52.540;6.434;2022-07-26T03:19:57;17.00;;;15.90;;
16900;SDS011;8567;52.540;6.434;2022-07-26T03:22:27;16.83;;;15.93;;
16900;SDS011;8567;52.540;6.434;2022-07-26T03:24:54;17.33;;;16.33;;
16900;SDS011;8567;52.540;6.434;2022-07-26T03:27:21;16.52;;;15.63;;
16900;SDS011;8567;52.540;6.434;2022-07-26T03:29:47;16.23;;;15.32;;
16900;SDS011;8567;52.540;6.434;2022-07-26T03:32:14;16.95;;;16.05;;
16900;SDS011;8567;52.540;6.434;2022-07-26T03:34:41;16.30;;;15.45;;
16900;SDS011;8567;52.540;6.434;2022-07-26T03:37:08;17.48;;;16.50;;
16900;SDS011;8567;52.540;6.434;2022-07-26T03:39:36;17.13;;;16.13;;
16900;SDS011;8567;52.540;6.434;2022-07-26T03:42:03;16.88;;;15.90;;
16900;SDS011;8567;52.540;6.434;2022-07-26T03:44:30;16.80;;;15.90;;
16900;SDS011;8567;52.540;6.434;2022-07-26T03:46:56;16.38;;;15.48;;
16900;SDS011;8567;52.540;6.434;2022-07-26T03:49:23;16.70;;;15.80;;
16900;SDS011;8567;52.540;6.434;2022-07-26T03:51:50;15.93;;;15.05;;
16900;SDS011;8567;52.540;6.434;2022-07-26T03:54:17;15.40;;;14.50;;
16900;SDS011;8567;52.540;6.434;2022-07-26T03:56:46;14.88;;;14.07;;
16900;SDS011;8567;52.540;6.434;2022-07-26T03:59:12;16.55;;;15.65;;
16900;SDS011;8567;52.540;6.434;2022-07-26T04:01:40;15.02;;;14.23;;
16900;SDS011;8567;52.540;6.434;2022-07-26T04:04:07;17.15;;;16.25;;
16900;SDS011;8567;52.540;6.434;2022-07-26T04:06:34;15.18;;;14.27;;
16900;SDS011;8567;52.540;6.434;2022-07-26T04:09:02;16.05;;;15.05;;
16900;SDS011;8567;52.540;6.434;2022-07-26T04:11:29;15.13;;;14.27;;
16900;SDS011;8567;52.540;6.434;2022-07-26T04:13:58;15.30;;;14.50;;
16900;SDS011;8567;52.540;6.434;2022-07-26T04:16:26;15.35;;;14.55;;
16900;SDS011;8567;52.540;6.434;2022-07-26T04:18:53;16.95;;;15.95;;
16900;SDS011;8567;52.540;6.434;2022-07-26T04:21:20;16.30;;;15.40;;
16900;SDS011;8567;52.540;6.434;2022-07-26T04:23:47;15.73;;;14.88;;
16900;SDS011;8567;52.540;6.434;2022-07-26T04:26:14;15.63;;;14.82;;
16900;SDS011;8567;52.540;6.434;2022-07-26T04:28:41;15.82;;;15.02;;
16900;SDS011;8567;52.540;6.434;2022-07-26T04:31:09;14.55;;;13.75;;
16900;SDS011;8567;52.540;6.434;2022-07-26T04:33:36;15.57;;;14.75;;
16900;SDS011;8567;52.540;6.434;2022-07-26T04:36:03;15.13;;;14.32;;
16900;SDS011;8567;52.540;6.434;2022-07-26T04:38:30;15.93;;;15.13;;
16900;SDS011;8567;52.540;6.434;2022-07-26T04:40:58;15.27;;;14.48;;
16900;SDS011;8567;52.540;6.434;2022-07-26T04:43:24;15.77;;;14.95;;
16900;SDS011;8567;52.540;6.434;2022-07-26T04:45:51;14.30;;;13.60;;
16900;SDS011;8567;52.540;6.434;2022-07-26T04:48:20;15.57;;;14.77;;
16900;SDS011;8567;52.540;6.434;2022-07-26T04:50:46;15.07;;;14.27;;
16900;SDS011;8567;52.540;6.434;2022-07-26T04:53:14;14.18;;;13.48;;
16900;SDS011;8567;52.540;6.434;2022-07-26T04:55:41;14.38;;;13.57;;
16900;SDS011;8567;52.540;6.434;2022-07-26T04:58:08;13.93;;;13.27;;
16900;SDS011;8567;52.540;6.434;2022-07-26T05:00:35;15.90;;;15.07;;
16900;SDS011;8567;52.540;6.434;2022-07-26T05:03:02;14.35;;;13.57;;
16900;SDS011;8567;52.540;6.434;2022-07-26T05:05:31;14.57;;;13.88;;
16900;SDS011;8567;52.540;6.434;2022-07-26T05:07:59;15.00;;;14.30;;
16900;SDS011;8567;52.540;6.434;2022-07-26T05:10:28;14.75;;;14.00;;
16900;SDS011;8567;52.540;6.434;2022-07-26T05:12:57;14.20;;;13.48;;
16900;SDS011;8567;52.540;6.434;2022-07-26T05:15:24;14.27;;;13.57;;
16900;SDS011;8567;52.540;6.434;2022-07-26T05:17:51;13.90;;;13.23;;
16900;SDS011;8567;52.540;6.434;2022-07-26T05:20:21;14.52;;;13.82;;
16900;SDS011;8567;52.540;6.434;2022-07-26T05:22:49;14.80;;;14.10;;
16900;SDS011;8567;52.540;6.434;2022-07-26T05:25:17;13.18;;;12.48;;
16900;SDS011;8567;52.540;6.434;2022-07-26T05:27:43;12.77;;;12.18;;
16900;SDS011;8567;52.540;6.434;2022-07-26T05:30:10;13.90;;;13.20;;
16900;SDS011;8567;52.540;6.434;2022-07-26T05:32:37;12.88;;;12.27;;
16900;SDS011;8567;52.540;6.434;2022-07-26T05:35:04;12.43;;;11.82;;
16900;SDS011;8567;52.540;6.434;2022-07-26T05:37:32;11.88;;;11.27;;
16900;SDS011;8567;52.540;6.434;2022-07-26T05:40:01;11.88;;;11.27;;
16900;SDS011;8567;52.540;6.434;2022-07-26T05:42:28;11.68;;;11.07;;
16900;SDS011;8567;52.540;6.434;2022-07-26T05:44:55;11.48;;;10.73;;
16900;SDS011;8567;52.540;6.434;2022-07-26T05:47:22;10.98;;;10.48;;
16900;SDS011;8567;52.540;6.434;2022-07-26T05:49:49;10.50;;;10.00;;
16900;SDS011;8567;52.540;6.434;2022-07-26T05:52:16;10.85;;;10.35;;
16900;SDS011;8567;52.540;6.434;2022-07-26T05:54:43;10.52;;;10.02;;
16900;SDS011;8567;52.540;6.434;2022-07-26T05:57:11;11.32;;;10.75;;
16900;SDS011;8567;52.540;6.434;2022-07-26T05:59:38;10.65;;;10.15;;
16900;SDS011;8567;52.540;6.434;2022-07-26T06:02:04;9.85;;;9.35;;
16900;SDS011;8567;52.540;6.434;2022-07-26T06:04:32;9.20;;;8.80;;
16900;SDS011;8567;52.540;6.434;2022-07-26T06:07:00;9.32;;;8.90;;
16900;SDS011;8567;52.540;6.434;2022-07-26T06:09:27;9.07;;;8.68;;
16900;SDS011;8567;52.540;6.434;2022-07-26T06:11:54;8.77;;;8.38;;
16900;SDS011;8567;52.540;6.434;2022-07-26T06:14:24;8.73;;;8.32;;
16900;SDS011;8567;52.540;6.434;2022-07-26T06:16:51;9.02;;;8.63;;
16900;SDS011;8567;52.540;6.434;2022-07-26T06:19:19;10.48;;;9.90;;
16900;SDS011;8567;52.540;6.434;2022-07-26T06:21:46;9.13;;;8.63;;
16900;SDS011;8567;52.540;6.434;2022-07-26T06:24:13;8.50;;;8.00;;
16900;SDS011;8567;52.540;6.434;2022-07-26T06:26:39;7.88;;;7.47;;
16900;SDS011;8567;52.540;6.434;2022-07-26T06:29:06;8.40;;;7.93;;
16900;SDS011;8567;52.540;6.434;2022-07-26T06:31:34;8.65;;;8.25;;
16900;SDS011;8567;52.540;6.434;2022-07-26T06:34:01;8.45;;;8.05;;
16900;SDS011;8567;52.540;6.434;2022-07-26T06:36:28;8.70;;;8.20;;
16900;SDS011;8567;52.540;6.434;2022-07-26T06:38:54;9.35;;;8.88;;
16900;SDS011;8567;52.540;6.434;2022-07-26T06:41:21;10.43;;;9.93;;
16900;SDS011;8567;52.540;6.434;2022-07-26T06:43:48;10.75;;;10.23;;
16900;SDS011;8567;52.540;6.434;2022-07-26T06:46:15;11.45;;;10.93;;
16900;SDS011;8567;52.540;6.434;2022-07-26T06:48:44;12.63;;;11.93;;
16900;SDS011;8567;52.540;6.434;2022-07-26T06:51:11;12.63;;;11.93;;
16900;SDS011;8567;52.540;6.434;2022-07-26T06:53:37;13.52;;;12.85;;
16900;SDS011;8567;52.540;6.434;2022-07-26T06:56:04;13.48;;;12.88;;
16900;SDS011;8567;52.540;6.434;2022-07-26T06:58:31;13.98;;;13.27;;
16900;SDS011;8567;52.540;6.434;2022-07-26T07:00:58;13.90;;;13.20;;
16900;SDS011;8567;52.540;6.434;2022-07-26T07:03:25;14.35;;;13.65;;
16900;SDS011;8567;52.540;6.434;2022-07-26T07:05:53;13.90;;;13.25;;
16900;SDS011;8567;52.540;6.434;2022-07-26T07:08:20;15.25;;;14.45;;
16900;SDS011;8567;52.540;6.434;2022-07-26T07:10:48;15.93;;;15.15;;
16900;SDS011;8567;52.540;6.434;2022-07-26T07:13:15;15.50;;;14.80;;
16900;SDS011;8567;52.540;6.434;2022-07-26T07:15:42;16.33;;;15.52;;
16900;SDS011;8567;52.540;6.434;2022-07-26T07:18:09;16.13;;;15.32;;
16900;SDS011;8567;52.540;6.434;2022-07-26T07:20:36;16.15;;;15.35;;
16900;SDS011;8567;52.540;6.434;2022-07-26T07:23:05;16.95;;;16.13;;
16900;SDS011;8567;52.540;6.434;2022-07-26T07:25:31;16.98;;;16.08;;
16900;SDS011;8567;52.540;6.434;2022-07-26T07:27:58;18.05;;;17.15;;
16900;SDS011;8567;52.540;6.434;2022-07-26T07:30:25;18.52;;;17.60;;
16900;SDS011;8567;52.540;6.434;2022-07-26T07:32:52;20.48;;;19.38;;
16900;SDS011;8567;52.540;6.434;2022-07-26T07:35:19;20.23;;;19.23;;
16900;SDS011;8567;52.540;6.434;2022-07-26T07:37:46;19.63;;;18.63;;
16900;SDS011;8567;52.540;6.434;2022-07-26T07:40:14;21.55;;;20.45;;
16900;SDS011;8567;52.540;6.434;2022-07-26T07:42:41;21.63;;;20.52;;
16900;SDS011;8567;52.540;6.434;2022-07-26T07:45:08;21.40;;;20.30;;
16900;SDS011;8567;52.540;6.434;2022-07-26T07:47:35;22.63;;;21.50;;
16900;SDS011;8567;52.540;6.434;2022-07-26T07:50:02;22.83;;;21.65;;
16900;SDS011;8567;52.540;6.434;2022-07-26T07:52:30;21.80;;;20.67;;
16900;SDS011;8567;52.540;6.434;2022-07-26T07:54:57;18.08;;;17.17;;
16900;SDS011;8567;52.540;6.434;2022-07-26T07:57:25;15.55;;;14.80;;
16900;SDS011;8567;52.540;6.434;2022-07-26T07:59:52;15.63;;;14.82;;
16900;SDS011;8567;52.540;6.434;2022-07-26T08:02:19;15.90;;;15.10;;
16900;SDS011;8567;52.540;6.434;2022-07-26T08:04:46;16.75;;;15.95;;
16900;SDS011;8567;52.540;6.434;2022-07-26T08:07:12;18.25;;;17.35;;
16900;SDS011;8567;52.540;6.434;2022-07-26T08:09:39;19.42;;;18.45;;
16900;SDS011;8567;52.540;6.434;2022-07-26T08:12:06;18.33;;;17.42;;
16900;SDS011;8567;52.540;6.434;2022-07-26T08:14:34;18.83;;;17.88;;
16900;SDS011;8567;52.540;6.434;2022-07-26T08:17:01;20.45;;;19.35;;
16900;SDS011;8567;52.540;6.434;2022-07-26T08:19:28;19.60;;;18.65;;
16900;SDS011;8567;52.540;6.434;2022-07-26T08:21:55;18.33;;;17.42;;
16900;SDS011;8567;52.540;6.434;2022-07-26T08:24:22;18.85;;;17.95;;
16900;SDS011;8567;52.540;6.434;2022-07-26T08:26:48;21.40;;;20.33;;
16900;SDS011;8567;52.540;6.434;2022-07-26T08:29:17;21.80;;;20.73;;
16900;SDS011;8567;52.540;6.434;2022-07-26T08:31:46;21.45;;;20.35;;
16900;SDS011;8567;52.540;6.434;2022-07-26T08:34:14;22.67;;;21.55;;
16900;SDS011;8567;52.540;6.434;2022-07-26T08:36:41;24.15;;;22.90;;
16900;SDS011;8567;52.540;6.434;2022-07-26T08:39:08;26.60;;;25.23;;
16900;SDS011;8567;52.540;6.434;2022-07-26T08:41:35;28.10;;;26.70;;
16900;SDS011;8567;52.540;6.434;2022-07-26T08:44:04;29.98;;;28.48;;
16900;SDS011;8567;52.540;6.434;2022-07-26T08:46:33;33.35;;;31.65;;
16900;SDS011;8567;52.540;6.434;2022-07-26T08:49:02;34.70;;;32.95;;
16900;SDS011;8567;52.540;6.434;2022-07-26T08:51:29;33.38;;;31.65;;
16900;SDS011;8567;52.540;6.434;2022-07-26T08:53:57;36.92;;;35.05;;
16900;SDS011;8567;52.540;6.434;2022-07-26T08:56:25;35.20;;;33.38;;
16900;SDS011;8567;52.540;6.434;2022-07-26T08:58:52;35.28;;;33.45;;
16900;SDS011;8567;52.540;6.434;2022-07-26T09:01:19;41.45;;;39.28;;
16900;SDS011;8567;52.540;6.434;2022-07-26T09:03:46;43.92;;;41.55;;
16900;SDS011;8567;52.540;6.434;2022-07-26T09:06:15;49.30;;;46.67;;
16900;SDS011;8567;52.540;6.434;2022-07-26T09:08:43;46.53;;;43.97;;
16900;SDS011;8567;52.540;6.434;2022-07-26T09:13:55;44.63;;;42.22;;
16900;SDS011;8567;52.540;6.434;2022-07-26T09:16:24;44.67;;;42.30;;
16900;SDS011;8567;52.540;6.434;2022-07-26T09:18:51;43.03;;;40.72;;
16900;SDS011;8567;52.540;6.434;2022-07-26T09:21:30;41.00;;;38.85;;
16900;SDS011;8567;52.540;6.434;2022-07-26T09:23:58;42.03;;;39.80;;
16900;SDS011;8567;52.540;6.434;2022-07-26T09:26:25;43.90;;;41.60;;
16900;SDS011;8567;52.540;6.434;2022-07-26T09:29:06;44.00;;;41.70;;
16900;SDS011;8567;52.540;6.434;2022-07-26T09:31:35;45.28;;;42.85;;
16900;SDS011;8567;52.540;6.434;2022-07-26T09:34:03;45.63;;;42.83;;
16900;SDS011;8567;52.540;6.434;2022-07-26T09:36:36;45.30;;;42.78;;
16900;SDS011;8567;52.540;6.434;2022-07-26T09:39:15;43.70;;;41.40;;
16900;SDS011;8567;52.540;6.434;2022-07-26T09:41:42;43.63;;;41.30;;
16900;SDS011;8567;52.540;6.434;2022-07-26T09:44:18;44.53;;;42.20;;
16900;SDS011;8567;52.540;6.434;2022-07-26T09:46:50;43.65;;;41.13;;
16900;SDS011;8567;52.540;6.434;2022-07-26T09:49:18;44.65;;;42.15;;
16900;SDS011;8567;52.540;6.434;2022-07-26T09:51:48;43.67;;;41.38;;
16900;SDS011;8567;52.540;6.434;2022-07-26T09:54:17;44.72;;;42.35;;
16900;SDS011;8567;52.540;6.434;2022-07-26T09:56:46;42.97;;;40.70;;
16900;SDS011;8567;52.540;6.434;2022-07-26T09:59:15;43.58;;;41.22;;
16900;SDS011;8567;52.540;6.434;2022-07-26T10:01:43;42.25;;;39.92;;
16900;SDS011;8567;52.540;6.434;2022-07-26T10:04:10;46.08;;;43.38;;
16900;SDS011;8567;52.540;6.434;2022-07-26T10:06:38;40.88;;;38.72;;
16900;SDS011;8567;52.540;6.434;2022-07-26T10:09:06;38.35;;;36.33;;
16900;SDS011;8567;52.540;6.434;2022-07-26T10:11:36;42.83;;;40.42;;
16900;SDS011;8567;52.540;6.434;2022-07-26T10:23:03;45.10;;;42.50;;
16900;SDS011;8567;52.540;6.434;2022-07-26T10:25:52;43.17;;;40.83;;
16900;SDS011;8567;52.540;6.434;2022-07-26T10:28:22;43.20;;;40.88;;
16900;SDS011;8567;52.540;6.434;2022-07-26T10:30:52;44.25;;;41.85;;
16900;SDS011;8567;52.540;6.434;2022-07-26T10:33:40;40.55;;;38.25;;
16900;SDS011;8567;52.540;6.434;2022-07-26T10:36:19;40.15;;;38.03;;
16900;SDS011;8567;52.540;6.434;2022-07-26T10:38:56;38.63;;;36.40;;
16900;SDS011;8567;52.540;6.434;2022-07-26T10:41:45;39.05;;;37.03;;
16900;SDS011;8567;52.540;6.434;2022-07-26T10:46:54;38.72;;;36.65;;
16900;SDS011;8567;52.540;6.434;2022-07-26T10:49:42;37.83;;;35.83;;
16900;SDS011;8567;52.540;6.434;2022-07-26T10:52:19;38.38;;;36.22;;
16900;SDS011;8567;52.540;6.434;2022-07-26T10:57:34;39.50;;;37.25;;
16900;SDS011;8567;52.540;6.434;2022-07-26T11:00:06;40.53;;;38.40;;
16900;SDS011;8567;52.540;6.434;2022-07-26T11:02:52;39.75;;;37.67;;
16900;SDS011;8567;52.540;6.434;2022-07-26T11:05:21;41.35;;;38.95;;
16900;SDS011;8567;52.540;6.434;2022-07-26T11:07:56;41.80;;;39.63;;
16900;SDS011;8567;52.540;6.434;2022-07-26T11:10:30;41.92;;;39.75;;
16900;SDS011;8567;52.540;6.434;2022-07-26T11:13:01;40.47;;;38.40;;
16900;SDS011;8567;52.540;6.434;2022-07-26T11:15:43;41.28;;;39.10;;
16900;SDS011;8567;52.540;6.434;2022-07-26T11:18:14;41.88;;;39.60;;
16900;SDS011;8567;52.540;6.434;2022-07-26T11:20:46;42.38;;;40.13;;
16900;SDS011;8567;52.540;6.434;2022-07-26T11:23:20;38.88;;;36.83;;
16900;SDS011;8567;52.540;6.434;2022-07-26T11:26:04;35.75;;;33.92;;
16900;SDS011;8567;52.540;6.434;2022-07-26T11:31:18;33.95;;;32.22;;
16900;SDS011;8567;52.540;6.434;2022-07-26T11:33:48;32.45;;;30.70;;
16900;SDS011;8567;52.540;6.434;2022-07-26T11:36:16;31.73;;;30.13;;
16900;SDS011;8567;52.540;6.434;2022-07-26T11:38:47;33.35;;;31.60;;
16900;SDS011;8567;52.540;6.434;2022-07-26T11:41:19;34.90;;;33.10;;
16900;SDS011;8567;52.540;6.434;2022-07-26T11:43:46;36.10;;;34.15;;
16900;SDS011;8567;52.540;6.434;2022-07-26T11:46:15;39.25;;;37.25;;
16900;SDS011;8567;52.540;6.434;2022-07-26T11:48:45;35.90;;;34.08;;
16900;SDS011;8567;52.540;6.434;2022-07-26T11:51:13;38.47;;;36.47;;
16900;SDS011;8567;52.540;6.434;2022-07-26T11:53:41;39.30;;;37.25;;
16900;SDS011;8567;52.540;6.434;2022-07-26T11:56:13;37.05;;;35.15;;
16900;SDS011;8567;52.540;6.434;2022-07-26T11:58:42;40.80;;;38.67;;
16900;SDS011;8567;52.540;6.434;2022-07-26T12:01:11;40.30;;;38.22;;
16900;SDS011;8567;52.540;6.434;2022-07-26T12:03:42;39.28;;;37.08;;
16900;SDS011;8567;52.540;6.434;2022-07-26T12:06:10;38.65;;;36.42;;
16900;SDS011;8567;52.540;6.434;2022-07-26T12:08:39;38.25;;;36.25;;
16900;SDS011;8567;52.540;6.434;2022-07-26T12:11:08;36.88;;;34.92;;
16900;SDS011;8567;52.540;6.434;2022-07-26T12:13:52;38.53;;;36.47;;
16900;SDS011;8567;52.540;6.434;2022-07-26T12:16:34;38.42;;;36.42;;
16900;SDS011;8567;52.540;6.434;2022-07-26T12:19:04;36.13;;;34.28;;
16900;SDS011;8567;52.540;6.434;2022-07-26T12:21:36;37.75;;;35.80;;
16900;SDS011;8567;52.540;6.434;2022-07-26T12:24:08;34.63;;;32.83;;
16900;SDS011;8567;52.540;6.434;2022-07-26T12:26:37;36.67;;;34.72;;
16900;SDS011;8567;52.540;6.434;2022-07-26T12:29:04;38.78;;;36.60;;
16900;SDS011;8567;52.540;6.434;2022-07-26T12:31:59;37.53;;;35.58;;
16900;SDS011;8567;52.540;6.434;2022-07-26T12:34:35;37.55;;;35.60;;
16900;SDS011;8567;52.540;6.434;2022-07-26T12:37:13;36.00;;;34.15;;
16900;SDS011;8567;52.540;6.434;2022-07-26T12:39:41;38.53;;;36.53;;
16900;SDS011;8567;52.540;6.434;2022-07-26T12:42:26;36.28;;;34.38;;
16900;SDS011;8567;52.540;6.434;2022-07-26T12:44:54;37.90;;;35.92;;
16900;SDS011;8567;52.540;6.434;2022-07-26T12:47:21;38.58;;;36.53;;
16900;SDS011;8567;52.540;6.434;2022-07-26T12:49:50;38.88;;;36.83;;
16900;SDS011;8567;52.540;6.434;2022-07-26T12:52:17;37.17;;;35.30;;
16900;SDS011;8567;52.540;6.434;2022-07-26T12:54:46;39.33;;;37.28;;
16900;SDS011;8567;52.540;6.434;2022-07-26T12:57:15;40.97;;;38.80;;
16900;SDS011;8567;52.540;6.434;2022-07-26T12:59:43;36.90;;;35.00;;
16900;SDS011;8567;52.540;6.434;2022-07-26T13:02:10;40.08;;;37.95;;
16900;SDS011;8567;52.540;6.434;2022-07-26T13:04:37;37.53;;;35.58;;
16900;SDS011;8567;52.540;6.434;2022-07-26T13:07:05;40.97;;;38.90;;
16900;SDS011;8567;52.540;6.434;2022-07-26T13:09:32;36.35;;;34.50;;
16900;SDS011;8567;52.540;6.434;2022-07-26T13:12:00;37.00;;;35.13;;
16900;SDS011;8567;52.540;6.434;2022-07-26T13:14:30;39.03;;;37.05;;
16900;SDS011;8567;52.540;6.434;2022-07-26T13:16:57;39.40;;;37.40;;
16900;SDS011;8567;52.540;6.434;2022-07-26T13:19:24;40.08;;;38.05;;
16900;SDS011;8567;52.540;6.434;2022-07-26T13:21:50;36.88;;;34.75;;
16900;SDS011;8567;52.540;6.434;2022-07-26T13:24:19;35.50;;;33.72;;
16900;SDS011;8567;52.540;6.434;2022-07-26T13:26:45;36.88;;;34.97;;
16900;SDS011;8567;52.540;6.434;2022-07-26T13:29:12;37.92;;;36.00;;
16900;SDS011;8567;52.540;6.434;2022-07-26T13:31:39;36.42;;;34.63;;
16900;SDS011;8567;52.540;6.434;2022-07-26T13:34:06;35.95;;;34.13;;
16900;SDS011;8567;52.540;6.434;2022-07-26T13:36:33;37.08;;;35.17;;
16900;SDS011;8567;52.540;6.434;2022-07-26T13:39:00;35.25;;;33.40;;
16900;SDS011;8567;52.540;6.434;2022-07-26T13:41:28;33.35;;;31.65;;
16900;SDS011;8567;52.540;6.434;2022-07-26T13:43:55;33.58;;;31.92;;
16900;SDS011;8567;52.540;6.434;2022-07-26T13:46:23;31.88;;;30.27;;
16900;SDS011;8567;52.540;6.434;2022-07-26T13:48:53;33.38;;;31.67;;
16900;SDS011;8567;52.540;6.434;2022-07-26T13:51:20;31.15;;;29.60;;
16900;SDS011;8567;52.540;6.434;2022-07-26T13:53:47;34.58;;;32.88;;
16900;SDS011;8567;52.540;6.434;2022-07-26T13:56:14;26.38;;;25.02;;
16900;SDS011;8567;52.540;6.434;2022-07-26T13:58:43;22.48;;;21.27;;
16900;SDS011;8567;52.540;6.434;2022-07-26T14:01:09;17.45;;;16.58;;
16900;SDS011;8567;52.540;6.434;2022-07-26T14:03:36;12.00;;;11.30;;
16900;SDS011;8567;52.540;6.434;2022-07-26T14:06:03;11.20;;;10.60;;
16900;SDS011;8567;52.540;6.434;2022-07-26T14:08:29;33.65;;;31.88;;
16900;SDS011;8567;52.540;6.434;2022-07-26T14:10:56;11.32;;;10.73;;
16900;SDS011;8567;52.540;6.434;2022-07-26T14:13:23;8.10;;;7.68;;
16900;SDS011;8567;52.540;6.434;2022-07-26T14:15:51;9.27;;;8.77;;
16900;SDS011;8567;52.540;6.434;2022-07-26T14:18:18;7.70;;;7.30;;
16900;SDS011;8567;52.540;6.434;2022-07-26T14:20:44;7.45;;;7.05;;
16900;SDS011;8567;52.540;6.434;2022-07-26T14:23:11;5.88;;;5.45;;
16900;SDS011;8567;52.540;6.434;2022-07-26T14:25:38;5.25;;;4.95;;
16900;SDS011;8567;52.540;6.434;2022-07-26T14:28:05;5.38;;;5.07;;
16900;SDS011;8567;52.540;6.434;2022-07-26T14:30:32;6.68;;;6.32;;
16900;SDS011;8567;52.540;6.434;2022-07-26T14:33:01;10.20;;;9.57;;
16900;SDS011;8567;52.540;6.434;2022-07-26T14:35:29;10.60;;;10.00;;
16900;SDS011;8567;52.540;6.434;2022-07-26T14:37:55;11.40;;;10.80;;
16900;SDS011;8567;52.540;6.434;2022-07-26T14:40:22;13.88;;;13.07;;
16900;SDS011;8567;52.540;6.434;2022-07-26T14:42:49;13.48;;;12.73;;
16900;SDS011;8567;52.540;6.434;2022-07-26T14:45:16;11.98;;;11.27;;
16900;SDS011;8567;52.540;6.434;2022-07-26T14:47:45;11.45;;;10.82;;
16900;SDS011;8567;52.540;6.434;2022-07-26T14:50:14;11.23;;;10.43;;
16900;SDS011;8567;52.540;6.434;2022-07-26T14:52:43;10.32;;;9.73;;
16900;SDS011;8567;52.540;6.434;2022-07-26T14:55:12;11.35;;;10.73;;
16900;SDS011;8567;52.540;6.434;2022-07-26T14:57:39;10.82;;;10.18;;
16900;SDS011;8567;52.540;6.434;2022-07-26T15:00:07;11.32;;;10.68;;
16900;SDS011;8567;52.540;6.434;2022-07-26T15:02:36;9.20;;;8.77;;